sensor_id;sensor_type;location;lat;lon;timestamp;P1;durP1;ratioP1;P2;durP2;ratioP2
33760;SDS011;20084;47.912;19.044;2024-03-06T00:01:43;38.55;;;22.23;;
33760;SDS011;20084;47.912;19.044;2024-03-06T00:04:09;32.10;;;17.67;;
33760;SDS011;20084;47.912;19.044;2024-03-06T00:06:34;27.35;;;15.95;;
33760;SDS011;20084;47.912;19.044;2024-03-06T00:09:01;22.95;;;15.52;;
33760;SDS011;20084;47.912;19.044;2024-03-06T00:11:28;22.55;;;14.25;;
33760;SDS011;20084;47.912;19.044;2024-03-06T00:13:53;21.02;;;11.85;;
33760;SDS011;20084;47.912;19.044;2024-03-06T00:16:19;20.02;;;11.48;;
33760;SDS011;20084;47.912;19.044;2024-03-06T00:18:45;18.58;;;11.43;;
33760;SDS011;20084;47.912;19.044;2024-03-06T00:21:11;14.68;;;9.20;;
33760;SDS011;20084;47.912;19.044;2024-03-06T00:23:36;13.90;;;8.32;;
33760;SDS011;20084;47.912;19.044;2024-03-06T00:26:02;12.57;;;8.25;;
33760;SDS011;20084;47.912;19.044;2024-03-06T00:28:28;12.65;;;7.45;;
33760;SDS011;20084;47.912;19.044;2024-03-06T00:30:54;9.48;;;6.35;;
33760;SDS011;20084;47.912;19.044;2024-03-06T00:33:20;10.23;;;7.13;;
33760;SDS011;20084;47.912;19.044;2024-03-06T00:35:46;13.25;;;7.95;;
33760;SDS011;20084;47.912;19.044;2024-03-06T00:38:11;13.38;;;8.50;;
33760;SDS011;20084;47.912;19.044;2024-03-06T00:40:38;15.88;;;10.07;;
33760;SDS011;20084;47.912;19.044;2024-03-06T00:43:03;19.52;;;12.25;;
33760;SDS011;20084;47.912;19.044;2024-03-06T00:45:30;16.10;;;10.90;;
33760;SDS011;20084;47.912;19.044;2024-03-06T00:47:55;12.05;;;8.25;;
33760;SDS011;20084;47.912;19.044;2024-03-06T00:50:21;14.18;;;8.93;;
33760;SDS011;20084;47.912;19.044;2024-03-06T00:52:48;15.60;;;9.45;;
33760;SDS011;20084;47.912;19.044;2024-03-06T00:55:13;12.70;;;7.95;;
33760;SDS011;20084;47.912;19.044;2024-03-06T00:57:39;13.32;;;7.95;;
33760;SDS011;20084;47.912;19.044;2024-03-06T01:00:05;9.30;;;7.00;;
33760;SDS011;20084;47.912;19.044;2024-03-06T01:02:35;8.00;;;6.07;;
33760;SDS011;20084;47.912;19.044;2024-03-06T01:05:06;13.20;;;8.20;;
33760;SDS011;20084;47.912;19.044;2024-03-06T01:07:32;12.02;;;8.40;;
33760;SDS011;20084;47.912;19.044;2024-03-06T01:09:59;14.98;;;9.25;;
33760;SDS011;20084;47.912;19.044;2024-03-06T01:12:26;13.10;;;9.10;;
33760;SDS011;20084;47.912;19.044;2024-03-06T01:14:52;13.73;;;8.98;;
33760;SDS011;20084;47.912;19.044;2024-03-06T01:17:17;11.45;;;7.82;;
33760;SDS011;20084;47.912;19.044;2024-03-06T01:19:43;8.35;;;6.30;;
33760;SDS011;20084;47.912;19.044;2024-03-06T01:22:09;8.13;;;5.85;;
33760;SDS011;20084;47.912;19.044;2024-03-06T01:24:35;8.30;;;6.18;;
33760;SDS011;20084;47.912;19.044;2024-03-06T01:27:01;7.32;;;5.50;;
33760;SDS011;20084;47.912;19.044;2024-03-06T01:29:28;7.15;;;5.43;;
33760;SDS011;20084;47.912;19.044;2024-03-06T01:31:54;9.30;;;6.68;;
33760;SDS011;20084;47.912;19.044;2024-03-06T01:34:19;8.32;;;6.28;;
33760;SDS011;20084;47.912;19.044;2024-03-06T01:36:45;8.90;;;6.15;;
33760;SDS011;20084;47.912;19.044;2024-03-06T01:39:11;9.52;;;6.55;;
33760;SDS011;20084;47.912;19.044;2024-03-06T01:41:37;8.02;;;5.82;;
33760;SDS011;20084;47.912;19.044;2024-03-06T01:44:02;7.75;;;5.03;;
33760;SDS011;20084;47.912;19.044;2024-03-06T01:46:29;8.15;;;5.70;;
33760;SDS011;20084;47.912;19.044;2024-03-06T01:48:55;10.32;;;5.63;;
33760;SDS011;20084;47.912;19.044;2024-03-06T01:51:21;7.82;;;5.55;;
33760;SDS011;20084;47.912;19.044;2024-03-06T01:53:46;8.02;;;5.30;;
33760;SDS011;20084;47.912;19.044;2024-03-06T01:56:13;8.73;;;5.88;;
33760;SDS011;20084;47.912;19.044;2024-03-06T01:58:42;9.82;;;6.03;;
33760;SDS011;20084;47.912;19.044;2024-03-06T02:01:10;7.00;;;5.57;;
33760;SDS011;20084;47.912;19.044;2024-03-06T02:03:36;9.95;;;7.13;;
33760;SDS011;20084;47.912;19.044;2024-03-06T02:06:02;7.57;;;6.18;;
33760;SDS011;20084;47.912;19.044;2024-03-06T02:08:29;9.38;;;6.57;;
33760;SDS011;20084;47.912;19.044;2024-03-06T02:10:55;11.73;;;7.47;;
33760;SDS011;20084;47.912;19.044;2024-03-06T02:13:21;9.40;;;6.43;;
33760;SDS011;20084;47.912;19.044;2024-03-06T02:15:47;10.80;;;6.53;;
33760;SDS011;20084;47.912;19.044;2024-03-06T02:18:14;9.40;;;5.53;;
33760;SDS011;20084;47.912;19.044;2024-03-06T02:20:39;11.82;;;7.10;;
33760;SDS011;20084;47.912;19.044;2024-03-06T02:23:05;10.40;;;7.57;;
33760;SDS011;20084;47.912;19.044;2024-03-06T02:25:31;10.23;;;7.07;;
33760;SDS011;20084;47.912;19.044;2024-03-06T02:27:57;11.75;;;7.57;;
33760;SDS011;20084;47.912;19.044;2024-03-06T02:30:24;12.20;;;7.30;;
33760;SDS011;20084;47.912;19.044;2024-03-06T02:32:49;10.82;;;7.20;;
33760;SDS011;20084;47.912;19.044;2024-03-06T02:35:15;8.68;;;5.88;;
33760;SDS011;20084;47.912;19.044;2024-03-06T02:37:41;8.18;;;6.07;;
33760;SDS011;20084;47.912;19.044;2024-03-06T02:40:08;8.40;;;6.05;;
33760;SDS011;20084;47.912;19.044;2024-03-06T02:42:35;8.52;;;5.70;;
33760;SDS011;20084;47.912;19.044;2024-03-06T02:45:05;9.23;;;5.57;;
33760;SDS011;20084;47.912;19.044;2024-03-06T02:47:32;9.60;;;5.72;;
33760;SDS011;20084;47.912;19.044;2024-03-06T02:49:58;5.85;;;4.50;;
33760;SDS011;20084;47.912;19.044;2024-03-06T02:52:23;5.03;;;3.83;;
33760;SDS011;20084;47.912;19.044;2024-03-06T02:54:49;5.40;;;4.07;;
33760;SDS011;20084;47.912;19.044;2024-03-06T02:57:14;4.03;;;3.33;;
33760;SDS011;20084;47.912;19.044;2024-03-06T02:59:40;7.35;;;4.10;;
33760;SDS011;20084;47.912;19.044;2024-03-06T03:02:06;6.20;;;4.30;;
33760;SDS011;20084;47.912;19.044;2024-03-06T03:04:31;6.43;;;4.75;;
33760;SDS011;20084;47.912;19.044;2024-03-06T03:06:57;6.78;;;5.30;;
33760;SDS011;20084;47.912;19.044;2024-03-06T03:09:22;7.72;;;5.65;;
33760;SDS011;20084;47.912;19.044;2024-03-06T03:11:48;8.63;;;5.80;;
33760;SDS011;20084;47.912;19.044;2024-03-06T03:14:14;8.55;;;6.35;;
33760;SDS011;20084;47.912;19.044;2024-03-06T03:16:39;7.90;;;5.00;;
33760;SDS011;20084;47.912;19.044;2024-03-06T03:19:06;8.95;;;6.07;;
33760;SDS011;20084;47.912;19.044;2024-03-06T03:21:33;10.43;;;5.78;;
33760;SDS011;20084;47.912;19.044;2024-03-06T03:23:59;10.07;;;5.50;;
33760;SDS011;20084;47.912;19.044;2024-03-06T03:26:24;6.05;;;4.35;;
33760;SDS011;20084;47.912;19.044;2024-03-06T03:28:50;7.32;;;3.85;;
33760;SDS011;20084;47.912;19.044;2024-03-06T03:31:16;9.63;;;5.97;;
33760;SDS011;20084;47.912;19.044;2024-03-06T03:33:41;9.25;;;5.57;;
33760;SDS011;20084;47.912;19.044;2024-03-06T03:36:07;7.95;;;5.25;;
33760;SDS011;20084;47.912;19.044;2024-03-06T03:38:34;7.32;;;4.95;;
33760;SDS011;20084;47.912;19.044;2024-03-06T03:41:08;11.50;;;5.47;;
33760;SDS011;20084;47.912;19.044;2024-03-06T03:43:34;6.22;;;4.07;;
33760;SDS011;20084;47.912;19.044;2024-03-06T03:46:00;8.60;;;5.63;;
33760;SDS011;20084;47.912;19.044;2024-03-06T03:48:26;7.65;;;5.80;;
33760;SDS011;20084;47.912;19.044;2024-03-06T03:50:52;4.43;;;3.10;;
33760;SDS011;20084;47.912;19.044;2024-03-06T03:53:17;4.25;;;3.10;;
33760;SDS011;20084;47.912;19.044;2024-03-06T03:55:43;3.90;;;3.17;;
33760;SDS011;20084;47.912;19.044;2024-03-06T03:58:09;3.65;;;2.72;;
33760;SDS011;20084;47.912;19.044;2024-03-06T04:00:34;5.22;;;3.10;;
33760;SDS011;20084;47.912;19.044;2024-03-06T04:03:00;7.38;;;3.75;;
33760;SDS011;20084;47.912;19.044;2024-03-06T04:05:25;6.07;;;3.90;;
33760;SDS011;20084;47.912;19.044;2024-03-06T04:07:51;5.95;;;3.78;;
33760;SDS011;20084;47.912;19.044;2024-03-06T04:10:16;7.78;;;4.32;;
33760;SDS011;20084;47.912;19.044;2024-03-06T04:12:42;6.75;;;4.53;;
33760;SDS011;20084;47.912;19.044;2024-03-06T04:15:08;6.93;;;4.68;;
33760;SDS011;20084;47.912;19.044;2024-03-06T04:17:34;6.22;;;4.90;;
33760;SDS011;20084;47.912;19.044;2024-03-06T04:20:02;7.20;;;4.50;;
33760;SDS011;20084;47.912;19.044;2024-03-06T04:22:30;7.80;;;4.82;;
33760;SDS011;20084;47.912;19.044;2024-03-06T04:24:56;9.02;;;5.15;;
33760;SDS011;20084;47.912;19.044;2024-03-06T04:27:23;5.43;;;3.58;;
33760;SDS011;20084;47.912;19.044;2024-03-06T04:29:50;3.40;;;2.33;;
33760;SDS011;20084;47.912;19.044;2024-03-06T04:32:15;4.28;;;3.50;;
33760;SDS011;20084;47.912;19.044;2024-03-06T04:34:41;4.22;;;3.40;;
33760;SDS011;20084;47.912;19.044;2024-03-06T04:37:07;4.82;;;3.70;;
33760;SDS011;20084;47.912;19.044;2024-03-06T04:39:32;7.60;;;4.97;;
33760;SDS011;20084;47.912;19.044;2024-03-06T04:41:58;8.75;;;5.47;;
33760;SDS011;20084;47.912;19.044;2024-03-06T04:44:23;4.72;;;3.70;;
33760;SDS011;20084;47.912;19.044;2024-03-06T04:46:49;5.70;;;3.53;;
33760;SDS011;20084;47.912;19.044;2024-03-06T04:49:15;3.67;;;3.00;;
33760;SDS011;20084;47.912;19.044;2024-03-06T04:51:41;3.30;;;2.75;;
33760;SDS011;20084;47.912;19.044;2024-03-06T04:54:07;4.63;;;3.10;;
33760;SDS011;20084;47.912;19.044;2024-03-06T04:56:33;9.07;;;5.20;;
33760;SDS011;20084;47.912;19.044;2024-03-06T04:58:59;12.43;;;6.90;;
33760;SDS011;20084;47.912;19.044;2024-03-06T05:01:28;6.15;;;3.13;;
33760;SDS011;20084;47.912;19.044;2024-03-06T05:03:54;4.13;;;3.13;;
33760;SDS011;20084;47.912;19.044;2024-03-06T05:06:20;4.78;;;3.45;;
33760;SDS011;20084;47.912;19.044;2024-03-06T05:08:47;4.20;;;3.58;;
33760;SDS011;20084;47.912;19.044;2024-03-06T05:11:12;4.55;;;3.50;;
33760;SDS011;20084;47.912;19.044;2024-03-06T05:13:38;5.93;;;4.28;;
33760;SDS011;20084;47.912;19.044;2024-03-06T05:16:04;7.35;;;3.45;;
33760;SDS011;20084;47.912;19.044;2024-03-06T05:18:30;4.50;;;3.63;;
33760;SDS011;20084;47.912;19.044;2024-03-06T05:20:56;6.20;;;3.85;;
33760;SDS011;20084;47.912;19.044;2024-03-06T05:23:21;8.07;;;5.35;;
33760;SDS011;20084;47.912;19.044;2024-03-06T05:25:48;4.25;;;2.80;;
33760;SDS011;20084;47.912;19.044;2024-03-06T05:28:13;3.80;;;3.13;;
33760;SDS011;20084;47.912;19.044;2024-03-06T05:30:39;4.00;;;3.13;;
33760;SDS011;20084;47.912;19.044;2024-03-06T05:33:05;9.18;;;3.58;;
33760;SDS011;20084;47.912;19.044;2024-03-06T05:35:30;4.63;;;3.25;;
33760;SDS011;20084;47.912;19.044;2024-03-06T05:37:56;8.07;;;4.60;;
33760;SDS011;20084;47.912;19.044;2024-03-06T05:40:22;8.10;;;4.93;;
33760;SDS011;20084;47.912;19.044;2024-03-06T05:42:47;8.75;;;5.60;;
33760;SDS011;20084;47.912;19.044;2024-03-06T05:45:13;13.35;;;8.50;;
33760;SDS011;20084;47.912;19.044;2024-03-06T05:47:38;6.55;;;4.90;;
33760;SDS011;20084;47.912;19.044;2024-03-06T05:50:05;6.95;;;4.68;;
33760;SDS011;20084;47.912;19.044;2024-03-06T05:52:31;4.53;;;3.35;;
33760;SDS011;20084;47.912;19.044;2024-03-06T05:54:57;7.45;;;3.80;;
33760;SDS011;20084;47.912;19.044;2024-03-06T05:57:23;5.30;;;3.72;;
33760;SDS011;20084;47.912;19.044;2024-03-06T05:59:49;7.38;;;5.15;;
33760;SDS011;20084;47.912;19.044;2024-03-06T06:02:15;7.38;;;3.65;;
33760;SDS011;20084;47.912;19.044;2024-03-06T06:04:45;6.60;;;3.05;;
33760;SDS011;20084;47.912;19.044;2024-03-06T06:07:11;4.35;;;3.00;;
33760;SDS011;20084;47.912;19.044;2024-03-06T06:09:36;4.88;;;3.70;;
33760;SDS011;20084;47.912;19.044;2024-03-06T06:12:02;4.22;;;3.00;;
33760;SDS011;20084;47.912;19.044;2024-03-06T06:14:27;5.05;;;2.97;;
33760;SDS011;20084;47.912;19.044;2024-03-06T06:16:54;4.82;;;3.60;;
33760;SDS011;20084;47.912;19.044;2024-03-06T06:19:20;4.95;;;3.58;;
33760;SDS011;20084;47.912;19.044;2024-03-06T06:21:46;5.15;;;3.63;;
33760;SDS011;20084;47.912;19.044;2024-03-06T06:24:13;7.18;;;4.28;;
33760;SDS011;20084;47.912;19.044;2024-03-06T06:26:39;7.47;;;5.35;;
33760;SDS011;20084;47.912;19.044;2024-03-06T06:29:05;8.48;;;4.75;;
33760;SDS011;20084;47.912;19.044;2024-03-06T06:31:30;11.00;;;5.80;;
33760;SDS011;20084;47.912;19.044;2024-03-06T06:33:56;17.65;;;9.43;;
33760;SDS011;20084;47.912;19.044;2024-03-06T06:36:22;11.93;;;7.03;;
33760;SDS011;20084;47.912;19.044;2024-03-06T06:38:48;8.57;;;5.43;;
33760;SDS011;20084;47.912;19.044;2024-03-06T06:41:14;10.52;;;6.50;;
33760;SDS011;20084;47.912;19.044;2024-03-06T06:43:42;15.70;;;9.15;;
33760;SDS011;20084;47.912;19.044;2024-03-06T06:46:08;14.90;;;9.57;;
33760;SDS011;20084;47.912;19.044;2024-03-06T06:48:33;11.80;;;7.85;;
33760;SDS011;20084;47.912;19.044;2024-03-06T06:50:59;16.30;;;9.60;;
33760;SDS011;20084;47.912;19.044;2024-03-06T06:53:29;23.98;;;13.38;;
33760;SDS011;20084;47.912;19.044;2024-03-06T06:55:55;20.75;;;13.63;;
33760;SDS011;20084;47.912;19.044;2024-03-06T06:58:21;21.15;;;13.30;;
33760;SDS011;20084;47.912;19.044;2024-03-06T07:00:47;17.65;;;10.35;;
33760;SDS011;20084;47.912;19.044;2024-03-06T07:03:13;13.13;;;8.85;;
33760;SDS011;20084;47.912;19.044;2024-03-06T07:05:38;11.95;;;8.05;;
33760;SDS011;20084;47.912;19.044;2024-03-06T07:08:06;11.02;;;7.85;;
33760;SDS011;20084;47.912;19.044;2024-03-06T07:10:32;9.95;;;7.63;;
33760;SDS011;20084;47.912;19.044;2024-03-06T07:12:57;11.82;;;7.47;;
33760;SDS011;20084;47.912;19.044;2024-03-06T07:15:23;11.50;;;8.15;;
33760;SDS011;20084;47.912;19.044;2024-03-06T07:17:50;9.63;;;7.47;;
33760;SDS011;20084;47.912;19.044;2024-03-06T07:20:15;10.65;;;7.10;;
33760;SDS011;20084;47.912;19.044;2024-03-06T07:22:41;10.68;;;8.30;;
33760;SDS011;20084;47.912;19.044;2024-03-06T07:25:07;12.43;;;8.02;;
33760;SDS011;20084;47.912;19.044;2024-03-06T07:27:33;11.55;;;8.25;;
33760;SDS011;20084;47.912;19.044;2024-03-06T07:29:58;9.98;;;7.28;;
33760;SDS011;20084;47.912;19.044;2024-03-06T07:32:24;9.65;;;7.72;;
33760;SDS011;20084;47.912;19.044;2024-03-06T07:34:50;11.82;;;8.82;;
33760;SDS011;20084;47.912;19.044;2024-03-06T07:37:16;11.80;;;7.90;;
33760;SDS011;20084;47.912;19.044;2024-03-06T07:39:41;10.77;;;7.93;;
33760;SDS011;20084;47.912;19.044;2024-03-06T07:42:07;11.32;;;8.13;;
33760;SDS011;20084;47.912;19.044;2024-03-06T07:44:32;9.70;;;7.63;;
33760;SDS011;20084;47.912;19.044;2024-03-06T07:47:00;11.20;;;7.32;;
33760;SDS011;20084;47.912;19.044;2024-03-06T07:49:26;9.57;;;6.97;;
33760;SDS011;20084;47.912;19.044;2024-03-06T07:51:51;8.65;;;6.68;;
33760;SDS011;20084;47.912;19.044;2024-03-06T07:54:17;9.10;;;6.72;;
33760;SDS011;20084;47.912;19.044;2024-03-06T07:56:43;9.70;;;6.15;;
33760;SDS011;20084;47.912;19.044;2024-03-06T07:59:08;8.05;;;6.65;;
33760;SDS011;20084;47.912;19.044;2024-03-06T08:01:36;8.00;;;5.95;;
33760;SDS011;20084;47.912;19.044;2024-03-06T08:04:01;9.70;;;6.70;;
33760;SDS011;20084;47.912;19.044;2024-03-06T08:06:27;8.73;;;6.53;;
33760;SDS011;20084;47.912;19.044;2024-03-06T08:08:54;6.95;;;5.72;;
33760;SDS011;20084;47.912;19.044;2024-03-06T08:11:20;11.70;;;7.38;;
33760;SDS011;20084;47.912;19.044;2024-03-06T08:13:46;11.55;;;7.50;;
33760;SDS011;20084;47.912;19.044;2024-03-06T08:16:13;9.38;;;6.05;;
33760;SDS011;20084;47.912;19.044;2024-03-06T08:18:39;9.25;;;6.47;;
33760;SDS011;20084;47.912;19.044;2024-03-06T08:21:05;9.40;;;7.13;;
33760;SDS011;20084;47.912;19.044;2024-03-06T08:23:31;11.50;;;6.20;;
33760;SDS011;20084;47.912;19.044;2024-03-06T08:25:58;10.57;;;6.35;;
33760;SDS011;20084;47.912;19.044;2024-03-06T08:28:24;6.18;;;5.40;;
33760;SDS011;20084;47.912;19.044;2024-03-06T08:30:50;6.10;;;5.43;;
33760;SDS011;20084;47.912;19.044;2024-03-06T08:33:17;12.07;;;5.72;;
33760;SDS011;20084;47.912;19.044;2024-03-06T08:35:43;7.72;;;5.57;;
33760;SDS011;20084;47.912;19.044;2024-03-06T08:38:08;7.65;;;5.72;;
33760;SDS011;20084;47.912;19.044;2024-03-06T08:40:34;6.63;;;5.40;;
33760;SDS011;20084;47.912;19.044;2024-03-06T08:43:00;7.35;;;5.53;;
33760;SDS011;20084;47.912;19.044;2024-03-06T08:45:25;5.55;;;4.80;;
33760;SDS011;20084;47.912;19.044;2024-03-06T08:47:51;6.03;;;4.35;;
33760;SDS011;20084;47.912;19.044;2024-03-06T08:50:19;6.32;;;4.70;;
33760;SDS011;20084;47.912;19.044;2024-03-06T08:52:45;6.03;;;4.60;;
33760;SDS011;20084;47.912;19.044;2024-03-06T08:55:11;5.75;;;4.40;;
33760;SDS011;20084;47.912;19.044;2024-03-06T08:57:37;4.68;;;4.05;;
33760;SDS011;20084;47.912;19.044;2024-03-06T09:00:04;5.47;;;4.45;;
33760;SDS011;20084;47.912;19.044;2024-03-06T09:02:35;6.40;;;4.88;;
33760;SDS011;20084;47.912;19.044;2024-03-06T09:05:04;4.88;;;4.07;;
33760;SDS011;20084;47.912;19.044;2024-03-06T09:07:30;4.90;;;4.15;;
33760;SDS011;20084;47.912;19.044;2024-03-06T09:09:56;10.90;;;4.20;;
33760;SDS011;20084;47.912;19.044;2024-03-06T09:12:21;5.45;;;4.13;;
33760;SDS011;20084;47.912;19.044;2024-03-06T09:14:47;6.40;;;4.38;;
33760;SDS011;20084;47.912;19.044;2024-03-06T09:17:13;5.45;;;3.97;;
33760;SDS011;20084;47.912;19.044;2024-03-06T09:19:39;8.88;;;4.30;;
33760;SDS011;20084;47.912;19.044;2024-03-06T09:22:06;5.93;;;4.20;;
33760;SDS011;20084;47.912;19.044;2024-03-06T09:24:32;6.43;;;4.28;;
33760;SDS011;20084;47.912;19.044;2024-03-06T09:26:58;5.55;;;4.18;;
33760;SDS011;20084;47.912;19.044;2024-03-06T09:29:23;6.68;;;4.35;;
33760;SDS011;20084;47.912;19.044;2024-03-06T09:31:49;5.72;;;3.78;;
33760;SDS011;20084;47.912;19.044;2024-03-06T09:34:15;4.22;;;3.78;;
33760;SDS011;20084;47.912;19.044;2024-03-06T09:36:48;4.95;;;4.20;;
33760;SDS011;20084;47.912;19.044;2024-03-06T09:39:17;6.25;;;3.95;;
33760;SDS011;20084;47.912;19.044;2024-03-06T09:41:46;4.37;;;2.67;;
33760;SDS011;20084;47.912;19.044;2024-03-06T09:44:12;3.60;;;3.13;;
33760;SDS011;20084;47.912;19.044;2024-03-06T09:46:44;4.72;;;3.55;;
33760;SDS011;20084;47.912;19.044;2024-03-06T09:49:12;4.70;;;3.45;;
33760;SDS011;20084;47.912;19.044;2024-03-06T09:51:40;4.45;;;3.38;;
33760;SDS011;20084;47.912;19.044;2024-03-06T09:54:10;4.10;;;3.35;;
33760;SDS011;20084;47.912;19.044;2024-03-06T09:56:38;5.70;;;3.50;;
33760;SDS011;20084;47.912;19.044;2024-03-06T09:59:04;4.53;;;3.70;;
33760;SDS011;20084;47.912;19.044;2024-03-06T10:01:30;4.68;;;3.50;;
33760;SDS011;20084;47.912;19.044;2024-03-06T10:03:57;3.85;;;3.45;;
33760;SDS011;20084;47.912;19.044;2024-03-06T10:06:23;4.47;;;3.53;;
33760;SDS011;20084;47.912;19.044;2024-03-06T10:08:48;4.43;;;3.45;;
33760;SDS011;20084;47.912;19.044;2024-03-06T10:11:15;3.95;;;3.15;;
33760;SDS011;20084;47.912;19.044;2024-03-06T10:13:42;3.72;;;3.05;;
33760;SDS011;20084;47.912;19.044;2024-03-06T10:16:08;4.75;;;3.38;;
33760;SDS011;20084;47.912;19.044;2024-03-06T10:18:35;5.43;;;3.33;;
33760;SDS011;20084;47.912;19.044;2024-03-06T10:21:01;6.13;;;3.20;;
33760;SDS011;20084;47.912;19.044;2024-03-06T10:23:27;6.00;;;3.78;;
33760;SDS011;20084;47.912;19.044;2024-03-06T10:25:54;4.07;;;3.67;;
33760;SDS011;20084;47.912;19.044;2024-03-06T10:28:21;4.53;;;3.38;;
33760;SDS011;20084;47.912;19.044;2024-03-06T10:30:49;5.43;;;3.83;;
33760;SDS011;20084;47.912;19.044;2024-03-06T10:33:16;3.60;;;3.20;;
33760;SDS011;20084;47.912;19.044;2024-03-06T10:35:46;4.90;;;3.45;;
33760;SDS011;20084;47.912;19.044;2024-03-06T10:38:16;4.80;;;4.00;;
33760;SDS011;20084;47.912;19.044;2024-03-06T10:40:45;4.68;;;3.60;;
33760;SDS011;20084;47.912;19.044;2024-03-06T10:43:11;3.80;;;3.40;;
33760;SDS011;20084;47.912;19.044;2024-03-06T10:48:03;8.07;;;4.38;;
33760;SDS011;20084;47.912;19.044;2024-03-06T10:50:31;3.65;;;3.30;;
33760;SDS011;20084;47.912;19.044;2024-03-06T10:52:57;3.55;;;3.20;;
33760;SDS011;20084;47.912;19.044;2024-03-06T10:55:23;4.60;;;3.60;;
33760;SDS011;20084;47.912;19.044;2024-03-06T10:57:50;5.65;;;3.65;;
33760;SDS011;20084;47.912;19.044;2024-03-06T11:00:18;4.80;;;3.83;;
33760;SDS011;20084;47.912;19.044;2024-03-06T11:02:46;5.25;;;3.60;;
33760;SDS011;20084;47.912;19.044;2024-03-06T11:05:13;6.15;;;3.13;;
33760;SDS011;20084;47.912;19.044;2024-03-06T11:07:40;4.10;;;3.05;;
33760;SDS011;20084;47.912;19.044;2024-03-06T11:10:06;4.60;;;3.20;;
33760;SDS011;20084;47.912;19.044;2024-03-06T11:12:36;5.22;;;3.13;;
33760;SDS011;20084;47.912;19.044;2024-03-06T11:15:10;4.75;;;3.67;;
33760;SDS011;20084;47.912;19.044;2024-03-06T11:17:39;6.07;;;3.60;;
33760;SDS011;20084;47.912;19.044;2024-03-06T11:28:22;3.75;;;3.00;;
33760;SDS011;20084;47.912;19.044;2024-03-06T11:33:27;8.13;;;3.42;;
33760;SDS011;20084;47.912;19.044;2024-03-06T11:39:02;3.55;;;3.25;;
33760;SDS011;20084;47.912;19.044;2024-03-06T11:41:31;4.70;;;2.92;;
33760;SDS011;20084;47.912;19.044;2024-03-06T11:49:32;4.78;;;3.20;;
33760;SDS011;20084;47.912;19.044;2024-03-06T11:52:08;12.30;;;3.90;;
33760;SDS011;20084;47.912;19.044;2024-03-06T11:54:34;7.72;;;3.47;;
33760;SDS011;20084;47.912;19.044;2024-03-06T11:57:01;3.65;;;3.10;;
33760;SDS011;20084;47.912;19.044;2024-03-06T11:59:29;4.55;;;4.13;;
33760;SDS011;20084;47.912;19.044;2024-03-06T12:02:00;3.97;;;3.53;;
33760;SDS011;20084;47.912;19.044;2024-03-06T12:04:27;5.07;;;3.80;;
33760;SDS011;20084;47.912;19.044;2024-03-06T12:06:56;3.90;;;3.45;;
33760;SDS011;20084;47.912;19.044;2024-03-06T12:09:23;14.23;;;4.37;;
33760;SDS011;20084;47.912;19.044;2024-03-06T12:11:49;4.15;;;3.40;;
33760;SDS011;20084;47.912;19.044;2024-03-06T12:14:16;7.85;;;3.33;;
33760;SDS011;20084;47.912;19.044;2024-03-06T12:16:43;6.15;;;3.50;;
33760;SDS011;20084;47.912;19.044;2024-03-06T12:19:19;12.77;;;4.10;;
33760;SDS011;20084;47.912;19.044;2024-03-06T12:21:46;4.07;;;3.67;;
33760;SDS011;20084;47.912;19.044;2024-03-06T12:24:12;4.78;;;3.10;;
33760;SDS011;20084;47.912;19.044;2024-03-06T12:26:41;4.28;;;3.15;;
33760;SDS011;20084;47.912;19.044;2024-03-06T12:29:07;5.10;;;3.42;;
33760;SDS011;20084;47.912;19.044;2024-03-06T12:31:35;5.03;;;3.17;;
33760;SDS011;20084;47.912;19.044;2024-03-06T12:34:02;4.93;;;4.03;;
33760;SDS011;20084;47.912;19.044;2024-03-06T12:36:28;6.82;;;4.32;;
33760;SDS011;20084;47.912;19.044;2024-03-06T12:39:04;6.97;;;3.97;;
33760;SDS011;20084;47.912;19.044;2024-03-06T12:41:38;5.10;;;4.03;;
33760;SDS011;20084;47.912;19.044;2024-03-06T12:44:04;4.18;;;3.60;;
33760;SDS011;20084;47.912;19.044;2024-03-06T12:46:31;5.32;;;3.97;;
33760;SDS011;20084;47.912;19.044;2024-03-06T12:48:57;4.80;;;3.75;;
33760;SDS011;20084;47.912;19.044;2024-03-06T12:51:23;7.03;;;3.90;;
33760;SDS011;20084;47.912;19.044;2024-03-06T12:53:48;5.40;;;3.92;;
33760;SDS011;20084;47.912;19.044;2024-03-06T12:56:15;8.75;;;3.78;;
33760;SDS011;20084;47.912;19.044;2024-03-06T12:58:41;10.15;;;4.20;;
33760;SDS011;20084;47.912;19.044;2024-03-06T13:01:07;5.25;;;3.83;;
33760;SDS011;20084;47.912;19.044;2024-03-06T13:03:32;6.53;;;4.05;;
33760;SDS011;20084;47.912;19.044;2024-03-06T13:05:58;4.55;;;3.65;;
33760;SDS011;20084;47.912;19.044;2024-03-06T13:08:24;5.00;;;3.63;;
33760;SDS011;20084;47.912;19.044;2024-03-06T13:10:50;5.40;;;3.83;;
33760;SDS011;20084;47.912;19.044;2024-03-06T13:13:15;6.32;;;3.70;;
33760;SDS011;20084;47.912;19.044;2024-03-06T13:15:41;7.38;;;4.55;;
33760;SDS011;20084;47.912;19.044;2024-03-06T13:18:07;6.07;;;4.30;;
33760;SDS011;20084;47.912;19.044;2024-03-06T13:20:33;5.93;;;4.38;;
33760;SDS011;20084;47.912;19.044;2024-03-06T13:22:59;6.40;;;4.18;;
33760;SDS011;20084;47.912;19.044;2024-03-06T13:25:25;9.55;;;4.43;;
33760;SDS011;20084;47.912;19.044;2024-03-06T13:27:50;8.02;;;4.78;;
33760;SDS011;20084;47.912;19.044;2024-03-06T13:30:20;5.65;;;4.43;;
33760;SDS011;20084;47.912;19.044;2024-03-06T13:32:46;8.25;;;4.32;;
33760;SDS011;20084;47.912;19.044;2024-03-06T13:35:12;7.95;;;4.60;;
33760;SDS011;20084;47.912;19.044;2024-03-06T13:37:39;6.13;;;4.53;;
33760;SDS011;20084;47.912;19.044;2024-03-06T13:40:08;5.13;;;3.80;;
33760;SDS011;20084;47.912;19.044;2024-03-06T13:42:36;7.63;;;4.85;;
33760;SDS011;20084;47.912;19.044;2024-03-06T13:45:03;5.45;;;4.15;;
33760;SDS011;20084;47.912;19.044;2024-03-06T13:47:29;5.15;;;4.10;;
33760;SDS011;20084;47.912;19.044;2024-03-06T13:49:55;6.47;;;4.40;;
33760;SDS011;20084;47.912;19.044;2024-03-06T13:52:21;6.00;;;4.45;;
33760;SDS011;20084;47.912;19.044;2024-03-06T13:54:48;4.75;;;4.07;;
33760;SDS011;20084;47.912;19.044;2024-03-06T13:57:14;7.78;;;4.60;;
33760;SDS011;20084;47.912;19.044;2024-03-06T13:59:40;6.57;;;4.53;;
33760;SDS011;20084;47.912;19.044;2024-03-06T14:02:06;5.93;;;4.65;;
33760;SDS011;20084;47.912;19.044;2024-03-06T14:04:32;5.90;;;4.28;;
33760;SDS011;20084;47.912;19.044;2024-03-06T14:06:58;5.40;;;4.15;;
33760;SDS011;20084;47.912;19.044;2024-03-06T14:09:25;7.32;;;4.47;;
33760;SDS011;20084;47.912;19.044;2024-03-06T14:11:52;5.32;;;4.38;;
33760;SDS011;20084;47.912;19.044;2024-03-06T14:14:18;4.78;;;4.25;;
33760;SDS011;20084;47.912;19.044;2024-03-06T14:16:44;6.50;;;4.38;;
33760;SDS011;20084;47.912;19.044;2024-03-06T14:19:10;4.78;;;3.58;;
33760;SDS011;20084;47.912;19.044;2024-03-06T14:21:36;4.97;;;4.13;;
33760;SDS011;20084;47.912;19.044;2024-03-06T14:24:02;4.75;;;4.28;;
33760;SDS011;20084;47.912;19.044;2024-03-06T14:26:29;5.13;;;3.88;;
33760;SDS011;20084;47.912;19.044;2024-03-06T14:28:56;7.93;;;3.92;;
33760;SDS011;20084;47.912;19.044;2024-03-06T14:31:22;7.03;;;4.28;;
33760;SDS011;20084;47.912;19.044;2024-03-06T14:33:47;5.28;;;4.00;;
33760;SDS011;20084;47.912;19.044;2024-03-06T14:36:14;6.13;;;4.55;;
33760;SDS011;20084;47.912;19.044;2024-03-06T14:38:40;6.15;;;4.85;;
33760;SDS011;20084;47.912;19.044;2024-03-06T14:41:05;7.43;;;4.90;;
33760;SDS011;20084;47.912;19.044;2024-03-06T14:43:32;5.68;;;4.15;;
33760;SDS011;20084;47.912;19.044;2024-03-06T14:45:59;5.10;;;4.60;;
33760;SDS011;20084;47.912;19.044;2024-03-06T14:48:25;5.25;;;4.65;;